nws-alerts: Checking more than four warning/county codes can delay the loading of your pages. You should use a cron job to get the data.
EllijayWeather Station Historical Data
Daily Summary for January 7, 2019 Units:  English    Metric   Both
Daily Weekly Monthly Yearly Custom
  High: Low: Average:
Temperature: 63.7 °F 37.6 °F 49.4 °F
Dew Point: 47.3 °F 36.5 °F 41.4 °F
Humidity: 99% 47% 77%
Wind Speed: 4.9mph 0.0mph 0.2mph
Wind Gust: 7.0mph - -
Wind- - SE
Pressure: 30.32 in 30.17 in -
Precipitation: 0.00 in    
Historical Graphs
 
 
Tabular Data for January 7, 2019
Time Temperature Dew Point Pressure Wind Wind Speed Wind Gust Humidity Rainfall Rate (Hourly) solar
00:04 40.6 °F 39.0 °F 30.28 in Calm     94% 0.00 in meteobridge W/m2
00:09 40.5 °F 39.2 °F 30.28 in Calm     95% 0.00 in meteobridge W/m2
00:14 40.5 °F 38.8 °F 30.28 in Calm     94% 0.00 in meteobridge W/m2
00:19 40.3 °F 39.0 °F 30.28 in Calm     95% 0.00 in meteobridge W/m2
00:24 40.3 °F 39.0 °F 30.29 in Calm     95% 0.00 in meteobridge W/m2
00:29 40.3 °F 39.0 °F 30.28 in Calm     95% 0.00 in meteobridge W/m2
00:34 39.9 °F 38.7 °F 30.29 in Calm     95% 0.00 in meteobridge W/m2
00:39 39.9 °F 38.7 °F 30.28 in Calm     95% 0.00 in meteobridge W/m2
00:44 39.7 °F 38.5 °F 30.28 in Calm     95% 0.00 in meteobridge W/m2
00:49 39.6 °F 38.3 °F 30.28 in Calm     95% 0.00 in meteobridge W/m2
00:54 39.4 °F 38.1 °F 30.28 in Calm     95% 0.00 in meteobridge W/m2
00:59 39.2 °F 37.9 °F 30.28 in Calm     95% 0.00 in meteobridge W/m2
01:04 39.0 °F 37.8 °F 30.29 in Calm     95% 0.00 in meteobridge W/m2
01:08 39.0 °F 37.8 °F 30.29 in Calm     95% 0.00 in meteobridge W/m2
01:14 38.8 °F 37.6 °F 30.29 in Calm     95% 0.00 in meteobridge W/m2
01:19 38.8 °F 37.6 °F 30.29 in Calm     95% 0.00 in meteobridge W/m2
01:24 38.8 °F 37.6 °F 30.29 in Calm     95% 0.00 in meteobridge W/m2
01:29 38.7 °F 37.4 °F 30.28 in Calm     95% 0.00 in meteobridge W/m2
01:34 38.7 °F 37.4 °F 30.28 in Calm     95% 0.00 in meteobridge W/m2
01:39 38.5 °F 37.2 °F 30.28 in Calm     95% 0.00 in meteobridge W/m2
01:44 38.3 °F 37.0 °F 30.29 in Calm     95% 0.00 in meteobridge W/m2
01:49 38.1 °F 36.9 °F 30.29 in Calm     95% 0.00 in meteobridge W/m2
01:54 38.1 °F 36.9 °F 30.29 in Calm     95% 0.00 in meteobridge W/m2
01:59 38.1 °F 36.9 °F 30.29 in Calm     95% 0.00 in meteobridge W/m2
02:04 37.9 °F 36.9 °F 30.29 in Calm     96% 0.00 in meteobridge W/m2
02:09 37.8 °F 36.7 °F 30.29 in Calm     96% 0.00 in meteobridge W/m2
02:14 37.8 °F 36.7 °F 30.29 in Calm     96% 0.00 in meteobridge W/m2
02:19 37.8 °F 36.7 °F 30.29 in Calm     96% 0.00 in meteobridge W/m2
02:24 37.8 °F 36.7 °F 30.29 in Calm     96% 0.00 in meteobridge W/m2
02:29 37.8 °F 36.7 °F 30.28 in Calm     96% 0.00 in meteobridge W/m2
02:34 37.8 °F 36.7 °F 30.28 in Calm     96% 0.00 in meteobridge W/m2
02:39 37.9 °F 36.9 °F 30.28 in Calm     96% 0.00 in meteobridge W/m2
02:44 37.9 °F 37.2 °F 30.28 in Calm     97% 0.00 in meteobridge W/m2
02:49 38.1 °F 37.4 °F 30.27 in Calm     97% 0.00 in meteobridge W/m2
02:54 38.3 °F 37.6 °F 30.27 in Calm     97% 0.00 in meteobridge W/m2
02:59 38.7 °F 37.9 °F 30.27 in Calm     97% 0.00 in meteobridge W/m2
03:04 38.7 °F 37.9 °F 30.27 in Calm     97% 0.00 in meteobridge W/m2
03:09 38.8 °F 38.3 °F 30.27 in Calm     98% 0.00 in meteobridge W/m2
03:14 39.0 °F 38.5 °F 30.27 in Calm     98% 0.00 in meteobridge W/m2
03:19 39.2 °F 38.7 °F 30.27 in Calm     98% 0.00 in meteobridge W/m2
03:24 39.4 °F 38.8 °F 30.27 in Calm     98% 0.00 in meteobridge W/m2
03:29 39.4 °F 38.7 °F 30.27 in Calm     97% 0.00 in meteobridge W/m2
03:34 39.2 °F 38.5 °F 30.27 in Calm     97% 0.00 in meteobridge W/m2
03:39 39.0 °F 37.9 °F 30.27 in Calm     96% 0.00 in meteobridge W/m2
03:44 38.7 °F 37.4 °F 30.26 in Calm     95% 0.00 in meteobridge W/m2
03:49 38.5 °F 37.4 °F 30.27 in Calm     96% 0.00 in meteobridge W/m2
03:54 38.5 °F 37.4 °F 30.26 in Calm     96% 0.00 in meteobridge W/m2
03:59 38.3 °F 37.2 °F 30.26 in Calm     96% 0.00 in meteobridge W/m2
04:04 38.1 °F 37.0 °F 30.27 in Calm     96% 0.00 in meteobridge W/m2
04:09 38.3 °F 37.6 °F 30.27 in Calm     97% 0.00 in meteobridge W/m2
04:14 38.5 °F 37.8 °F 30.27 in Calm     97% 0.00 in meteobridge W/m2
04:19 38.3 °F 37.6 °F 30.27 in Calm     97% 0.00 in meteobridge W/m2
04:24 38.5 °F 37.8 °F 30.27 in Calm     97% 0.00 in meteobridge W/m2
04:29 38.5 °F 37.8 °F 30.27 in Calm     97% 0.00 in meteobridge W/m2
04:34 38.3 °F 37.2 °F 30.26 in Calm     96% 0.00 in meteobridge W/m2
04:39 38.1 °F 37.0 °F 30.26 in Calm     96% 0.00 in meteobridge W/m2
04:44 38.3 °F 37.6 °F 30.26 in Calm     97% 0.00 in meteobridge W/m2
04:49 38.5 °F 37.8 °F 30.27 in Calm     97% 0.00 in meteobridge W/m2
04:54 38.5 °F 37.8 °F 30.27 in Calm     97% 0.00 in meteobridge W/m2
04:59 38.5 °F 37.8 °F 30.27 in Calm     97% 0.00 in meteobridge W/m2
05:04 38.5 °F 37.8 °F 30.27 in Calm     97% 0.00 in meteobridge W/m2
05:09 38.5 °F 37.8 °F 30.27 in Calm     97% 0.00 in meteobridge W/m2
05:14 38.7 °F 37.9 °F 30.27 in Calm     97% 0.00 in meteobridge W/m2
05:19 38.7 °F 37.9 °F 30.27 in Calm     97% 0.00 in meteobridge W/m2
05:24 38.7 °F 37.9 °F 30.27 in Calm     97% 0.00 in meteobridge W/m2
05:29 38.7 °F 37.9 °F 30.27 in Calm     97% 0.00 in meteobridge W/m2
05:34 38.5 °F 37.8 °F 30.27 in Calm     97% 0.00 in meteobridge W/m2
05:39 38.5 °F 37.8 °F 30.27 in Calm     97% 0.00 in meteobridge W/m2
05:44 38.7 °F 37.9 °F 30.27 in Calm     97% 0.00 in meteobridge W/m2
05:49 38.5 °F 37.8 °F 30.27 in Calm     97% 0.00 in meteobridge W/m2
05:54 38.5 °F 37.8 °F 30.27 in Calm     97% 0.00 in meteobridge W/m2
05:59 38.5 °F 37.8 °F 30.27 in Calm     97% 0.00 in meteobridge W/m2
06:04 38.5 °F 37.8 °F 30.27 in Calm     97% 0.00 in meteobridge W/m2
06:09 38.5 °F 37.8 °F 30.27 in Calm     97% 0.00 in meteobridge W/m2
06:14 38.7 °F 37.9 °F 30.27 in Calm     97% 0.00 in meteobridge W/m2
06:19 38.7 °F 37.9 °F 30.27 in Calm     97% 0.00 in meteobridge W/m2
06:24 38.7 °F 37.9 °F 30.28 in Calm     97% 0.00 in meteobridge W/m2
06:29 38.7 °F 37.9 °F 30.28 in Calm     97% 0.00 in meteobridge W/m2
06:34 38.5 °F 37.8 °F 30.28 in Calm     97% 0.00 in meteobridge W/m2
06:39 38.5 °F 37.8 °F 30.28 in Calm     97% 0.00 in meteobridge W/m2
06:44 38.7 °F 37.9 °F 30.29 in Calm     97% 0.00 in meteobridge W/m2
06:49 38.7 °F 37.9 °F 30.29 in Calm     97% 0.00 in meteobridge W/m2
06:54 38.7 °F 37.9 °F 30.29 in Calm     97% 0.00 in meteobridge W/m2
06:59 38.7 °F 37.9 °F 30.29 in Calm     97% 0.00 in meteobridge W/m2
07:04 38.7 °F 37.9 °F 30.29 in Calm     97% 0.00 in meteobridge W/m2
07:09 38.7 °F 37.9 °F 30.30 in Calm     97% 0.00 in meteobridge W/m2
07:14 38.7 °F 37.9 °F 30.30 in Calm     97% 0.00 in meteobridge W/m2
07:19 38.5 °F 37.8 °F 30.31 in Calm     97% 0.00 in meteobridge W/m2
07:24 38.1 °F 37.0 °F 30.31 in Calm     96% 0.00 in meteobridge W/m2
07:29 38.1 °F 37.0 °F 30.32 in Calm     96% 0.00 in meteobridge W/m2
07:34 37.9 °F 36.9 °F 30.31 in Calm     96% 0.00 in meteobridge W/m2
07:39 37.8 °F 36.7 °F 30.31 in Calm     96% 0.00 in meteobridge W/m2
07:44 37.6 °F 36.5 °F 30.31 in Calm     96% 0.00 in meteobridge W/m2
07:49 37.6 °F 36.9 °F 30.31 in Calm     97% 0.00 in meteobridge W/m2
07:54 37.6 °F 36.9 °F 30.31 in Calm     97% 0.00 in meteobridge W/m2
07:59 37.6 °F 36.9 °F 30.31 in Calm     97% 0.00 in meteobridge W/m2
08:04 37.6 °F 36.9 °F 30.30 in Calm     97% 0.00 in meteobridge W/m2
08:09 37.6 °F 36.9 °F 30.31 in Calm     97% 0.00 in meteobridge W/m2
08:14 37.6 °F 36.9 °F 30.31 in Calm     97% 0.00 in meteobridge W/m2
08:19 37.6 °F 36.9 °F 30.31 in Calm     97% 0.00 in meteobridge W/m2
08:24 37.8 °F 37.0 °F 30.31 in Calm     97% 0.00 in meteobridge W/m2
08:29 37.8 °F 37.2 °F 30.30 in Calm     98% 0.00 in meteobridge W/m2
08:34 37.8 °F 37.0 °F 30.31 in Calm     97% 0.00 in meteobridge W/m2
08:39 37.9 °F 37.4 °F 30.31 in Calm     98% 0.00 in meteobridge W/m2
08:44 37.9 °F 37.4 °F 30.31 in Calm     98% 0.00 in meteobridge W/m2
08:49 38.1 °F 37.6 °F 30.31 in Calm     98% 0.00 in meteobridge W/m2
08:54 38.3 °F 37.8 °F 30.32 in Calm     98% 0.00 in meteobridge W/m2
08:59 38.7 °F 38.1 °F 30.31 in Calm     98% 0.00 in meteobridge W/m2
09:04 38.8 °F 38.3 °F 30.32 in Calm     98% 0.00 in meteobridge W/m2
09:09 39.0 °F 38.5 °F 30.32 in Calm     98% 0.00 in meteobridge W/m2
09:14 39.6 °F 39.0 °F 30.32 in Calm     98% 0.00 in meteobridge W/m2
09:19 39.7 °F 39.2 °F 30.32 in Calm     98% 0.00 in meteobridge W/m2
09:24 40.6 °F 40.1 °F 30.32 in Calm     98% 0.00 in meteobridge W/m2
09:29 41.7 °F 41.5 °F 30.32 in Calm     99% 0.00 in meteobridge W/m2
09:34 42.4 °F 42.3 °F 30.32 in Calm     99% 0.00 in meteobridge W/m2
09:39 43.3 °F 43.2 °F 30.32 in Calm     99% 0.00 in meteobridge W/m2
09:44 44.1 °F 43.9 °F 30.32 in Calm     99% 0.00 in meteobridge W/m2
09:49 45.1 °F 45.0 °F 30.32 in Calm     99% 0.00 in meteobridge W/m2
09:54 46.2 °F 45.1 °F 30.32 in Calm     96% 0.00 in meteobridge W/m2
09:59 47.1 °F 45.1 °F 30.32 in Calm   1.0 mph 93% 0.00 in meteobridge W/m2
10:04 48.0 °F 45.9 °F 30.32 in Calm     92% 0.00 in meteobridge W/m2
10:09 49.1 °F 46.9 °F 30.32 in Calm     92% 0.00 in meteobridge W/m2
10:14 50.7 °F 47.3 °F 30.32 in ESE 4.0 mph 4.0 mph 88% 0.00 in meteobridge W/m2
10:19 52.9 °F 45.5 °F 30.32 in Calm   1.0 mph 76% 0.00 in meteobridge W/m2
10:24 54.9 °F 45.7 °F 30.32 in Calm   5.0 mph 71% 0.00 in meteobridge W/m2
10:29 55.9 °F 45.1 °F 30.32 in Calm   5.0 mph 67% 0.00 in meteobridge W/m2
10:34 57.0 °F 46.6 °F 30.32 in Calm   1.0 mph 68% 0.00 in meteobridge W/m2
10:39 57.6 °F 46.2 °F 30.31 in Calm     66% 0.00 in meteobridge W/m2
10:44 57.9 °F 45.3 °F 30.31 in Calm   1.0 mph 63% 0.00 in meteobridge W/m2
10:49 58.6 °F 44.8 °F 30.31 in Calm     60% 0.00 in meteobridge W/m2
10:54 59.2 °F 44.4 °F 30.31 in Calm   4.0 mph 58% 0.00 in meteobridge W/m2
10:59 59.5 °F 44.8 °F 30.31 in SE 0.9 mph 1.0 mph 58% 0.00 in meteobridge W/m2
11:04 59.9 °F 44.2 °F 30.31 in Calm     56% 0.00 in meteobridge W/m2
11:09 60.1 °F 45.3 °F 30.30 in Calm     58% 0.00 in meteobridge W/m2
11:14 60.4 °F 44.6 °F 30.30 in Calm   1.0 mph 56% 0.00 in meteobridge W/m2
11:19 61.0 °F 45.7 °F 30.30 in Calm     57% 0.00 in meteobridge W/m2
11:24 61.2 °F 45.3 °F 30.29 in Calm   1.0 mph 56% 0.00 in meteobridge W/m2
11:29 61.5 °F 44.2 °F 30.29 in Calm   5.0 mph 53% 0.00 in meteobridge W/m2
11:34 61.9 °F 44.6 °F 30.29 in Calm     53% 0.00 in meteobridge W/m2
11:39 62.4 °F 44.1 °F 30.29 in East 0.9 mph 4.0 mph 51% 0.00 in meteobridge W/m2
11:44 63.0 °F 44.6 °F 30.28 in Calm   1.0 mph 51% 0.00 in meteobridge W/m2
11:49 63.1 °F 44.2 °F 30.28 in SE 2.0 mph 4.0 mph 50% 0.00 in meteobridge W/m2
11:54 63.3 °F 44.4 °F 30.28 in Calm   4.0 mph 50% 0.00 in meteobridge W/m2
11:59 63.7 °F 45.1 °F 30.28 in Calm     51% 0.00 in meteobridge W/m2
12:04 63.7 °F 43.7 °F 30.27 in Calm   3.0 mph 48% 0.00 in meteobridge W/m2
12:09 63.7 °F 44.2 °F 30.27 in South 2.0 mph 2.0 mph 49% 0.00 in meteobridge W/m2
12:14 63.5 °F 44.6 °F 30.27 in Calm   4.0 mph 50% 0.00 in meteobridge W/m2
12:19 63.5 °F 44.6 °F 30.26 in SE 2.0 mph 4.0 mph 50% 0.00 in meteobridge W/m2
12:24 63.3 °F 43.9 °F 30.26 in Calm   5.0 mph 49% 0.00 in meteobridge W/m2
12:29 63.3 °F 45.0 °F 30.26 in Calm   6.0 mph 51% 0.00 in meteobridge W/m2
12:34 63.1 °F 44.2 °F 30.25 in Calm   4.0 mph 50% 0.00 in meteobridge W/m2
12:39 63.0 °F 45.1 °F 30.25 in Calm   4.0 mph 52% 0.00 in meteobridge W/m2
12:44 62.8 °F 43.9 °F 30.25 in Calm   2.0 mph 50% 0.00 in meteobridge W/m2
12:49 63.0 °F 45.1 °F 30.25 in Calm   4.0 mph 52% 0.00 in meteobridge W/m2
12:54 63.0 °F 44.6 °F 30.24 in SE 4.9 mph 7.0 mph 51% 0.00 in meteobridge W/m2
12:59 62.8 °F 45.0 °F 30.23 in Calm   1.0 mph 52% 0.00 in meteobridge W/m2
13:04 63.0 °F 44.6 °F 30.23 in SE 4.0 mph 4.0 mph 51% 0.00 in meteobridge W/m2
13:09 63.1 °F 44.8 °F 30.23 in SSE 2.0 mph 6.0 mph 51% 0.00 in meteobridge W/m2
13:14 63.3 °F 45.3 °F 30.23 in ESE 2.0 mph 2.0 mph 52% 0.00 in meteobridge W/m2
13:19 63.7 °F 44.2 °F 30.22 in SSW 2.0 mph 5.0 mph 49% 0.00 in meteobridge W/m2
13:24 63.5 °F 44.6 °F 30.22 in Calm   1.0 mph 50% 0.00 in meteobridge W/m2
13:29 63.5 °F 44.1 °F 30.22 in ESE 4.9 mph 5.0 mph 49% 0.00 in meteobridge W/m2
13:34 63.3 °F 43.3 °F 30.22 in Calm   4.0 mph 48% 0.00 in meteobridge W/m2
13:39 63.1 °F 44.2 °F 30.21 in Calm   1.0 mph 50% 0.00 in meteobridge W/m2
13:44 63.3 °F 44.4 °F 30.21 in Calm   1.0 mph 50% 0.00 in meteobridge W/m2
13:49 63.5 °F 44.1 °F 30.21 in ESE 0.9 mph 6.0 mph 49% 0.00 in meteobridge W/m2
13:54 63.3 °F 45.0 °F 30.21 in ESE 2.0 mph 4.0 mph 51% 0.00 in meteobridge W/m2
13:59 63.3 °F 43.9 °F 30.21 in Calm   5.0 mph 49% 0.00 in meteobridge W/m2
14:04 63.5 °F 45.5 °F 30.21 in Calm     52% 0.00 in meteobridge W/m2
14:09 63.7 °F 43.7 °F 30.20 in Calm   1.0 mph 48% 0.00 in meteobridge W/m2
14:14 63.5 °F 44.1 °F 30.20 in Calm     49% 0.00 in meteobridge W/m2
14:19 63.3 °F 42.8 °F 30.20 in Calm   5.0 mph 47% 0.00 in meteobridge W/m2
14:24 63.3 °F 43.3 °F 30.20 in SE 0.9 mph 4.0 mph 48% 0.00 in meteobridge W/m2
14:29 63.1 °F 43.2 °F 30.20 in ESE 2.0 mph 6.0 mph 48% 0.00 in meteobridge W/m2
14:34 63.1 °F 43.7 °F 30.20 in Calm   2.0 mph 49% 0.00 in meteobridge W/m2
14:39 63.1 °F 43.7 °F 30.20 in Calm   2.0 mph 49% 0.00 in meteobridge W/m2
14:44 63.3 °F 43.9 °F 30.20 in SE 0.9 mph 5.0 mph 49% 0.00 in meteobridge W/m2
14:49 63.1 °F 44.8 °F 30.20 in Calm   1.0 mph 51% 0.00 in meteobridge W/m2
14:54 63.1 °F 44.8 °F 30.20 in Calm   1.0 mph 51% 0.00 in meteobridge W/m2
14:59 63.3 °F 45.0 °F 30.20 in Calm   4.0 mph 51% 0.00 in meteobridge W/m2
15:04 63.5 °F 43.5 °F 30.20 in Calm   4.0 mph 48% 0.00 in meteobridge W/m2
15:09 63.5 °F 44.1 °F 30.20 in East 4.0 mph 4.0 mph 49% 0.00 in meteobridge W/m2
15:14 63.7 °F 43.7 °F 30.20 in Calm   1.0 mph 48% 0.00 in meteobridge W/m2
15:19 63.7 °F 43.2 °F 30.21 in Calm   2.0 mph 47% 0.00 in meteobridge W/m2
15:24 63.5 °F 44.1 °F 30.21 in ESE 4.0 mph 4.0 mph 49% 0.00 in meteobridge W/m2
15:29 63.3 °F 43.3 °F 30.21 in ESE 0.9 mph 5.0 mph 48% 0.00 in meteobridge W/m2
15:34 63.3 °F 43.3 °F 30.21 in Calm   1.0 mph 48% 0.00 in meteobridge W/m2
15:39 63.1 °F 43.2 °F 30.21 in Calm   4.0 mph 48% 0.00 in meteobridge W/m2
15:44 63.1 °F 43.7 °F 30.21 in Calm   1.0 mph 49% 0.00 in meteobridge W/m2
15:49 63.0 °F 43.5 °F 30.21 in Calm   2.0 mph 49% 0.00 in meteobridge W/m2
15:54 63.0 °F 43.5 °F 30.21 in Calm   4.0 mph 49% 0.00 in meteobridge W/m2
15:59 63.0 °F 43.5 °F 30.21 in ESE 0.9 mph 4.0 mph 49% 0.00 in meteobridge W/m2
16:04 62.8 °F 42.8 °F 30.21 in ESE 2.0 mph 4.0 mph 48% 0.00 in meteobridge W/m2
16:09 62.8 °F 43.3 °F 30.21 in Calm   2.0 mph 49% 0.00 in meteobridge W/m2
16:14 62.6 °F 42.6 °F 30.21 in ESE 0.9 mph 5.0 mph 48% 0.00 in meteobridge W/m2
16:19 62.4 °F 43.5 °F 30.21 in Calm     50% 0.00 in meteobridge W/m2
16:24 62.4 °F 43.0 °F 30.21 in Calm   2.0 mph 49% 0.00 in meteobridge W/m2
16:29 62.4 °F 43.0 °F 30.21 in Calm   1.0 mph 49% 0.00 in meteobridge W/m2
16:34 62.4 °F 43.5 °F 30.21 in Calm     50% 0.00 in meteobridge W/m2
16:39 62.2 °F 42.8 °F 30.21 in SE 0.9 mph 1.0 mph 49% 0.00 in meteobridge W/m2
16:44 62.2 °F 42.8 °F 30.21 in Calm     49% 0.00 in meteobridge W/m2
16:49 62.1 °F 42.6 °F 30.21 in Calm   1.0 mph 49% 0.00 in meteobridge W/m2
16:54 61.9 °F 43.0 °F 30.21 in Calm   2.0 mph 50% 0.00 in meteobridge W/m2
16:59 61.7 °F 42.8 °F 30.20 in Calm   2.0 mph 50% 0.00 in meteobridge W/m2
17:04 61.3 °F 42.6 °F 30.20 in Calm   2.0 mph 50% 0.00 in meteobridge W/m2
17:09 61.2 °F 43.0 °F 30.20 in Calm     51% 0.00 in meteobridge W/m2
17:14 61.0 °F 42.3 °F 30.20 in Calm   4.0 mph 50% 0.00 in meteobridge W/m2
17:19 61.0 °F 43.7 °F 30.20 in Calm   2.0 mph 53% 0.00 in meteobridge W/m2
17:24 60.4 °F 42.8 °F 30.20 in Calm     52% 0.00 in meteobridge W/m2
17:29 60.4 °F 42.8 °F 30.20 in Calm   1.0 mph 52% 0.00 in meteobridge W/m2
17:34 60.1 °F 42.4 °F 30.20 in Calm     52% 0.00 in meteobridge W/m2
17:39 59.9 °F 41.7 °F 30.20 in Calm   2.0 mph 51% 0.00 in meteobridge W/m2
17:44 59.9 °F 42.3 °F 30.21 in Calm     52% 0.00 in meteobridge W/m2
17:49 59.5 °F 42.8 °F 30.21 in Calm     54% 0.00 in meteobridge W/m2
17:54 59.4 °F 43.7 °F 30.21 in Calm     56% 0.00 in meteobridge W/m2
17:59 58.6 °F 43.0 °F 30.22 in Calm     56% 0.00 in meteobridge W/m2
18:04 58.1 °F 43.3 °F 30.22 in Calm     58% 0.00 in meteobridge W/m2
18:09 57.4 °F 43.2 °F 30.22 in Calm     59% 0.00 in meteobridge W/m2
18:14 56.7 °F 43.3 °F 30.21 in Calm     61% 0.00 in meteobridge W/m2
18:19 55.9 °F 43.2 °F 30.22 in Calm     62% 0.00 in meteobridge W/m2
18:24 55.2 °F 42.8 °F 30.22 in Calm     63% 0.00 in meteobridge W/m2
18:29 54.7 °F 42.8 °F 30.21 in Calm     64% 0.00 in meteobridge W/m2
18:34 54.1 °F 43.0 °F 30.22 in Calm     66% 0.00 in meteobridge W/m2
18:39 53.8 °F 42.6 °F 30.22 in Calm     66% 0.00 in meteobridge W/m2
18:44 53.4 °F 42.8 °F 30.22 in Calm     67% 0.00 in meteobridge W/m2
18:49 53.1 °F 42.8 °F 30.22 in Calm     68% 0.00 in meteobridge W/m2
18:54 52.5 °F 42.6 °F 30.22 in Calm     69% 0.00 in meteobridge W/m2
18:59 52.2 °F 42.6 °F 30.22 in Calm     70% 0.00 in meteobridge W/m2
19:04 51.6 °F 42.4 °F 30.22 in Calm     71% 0.00 in meteobridge W/m2
19:09 51.4 °F 42.8 °F 30.22 in Calm     72% 0.00 in meteobridge W/m2
19:14 51.3 °F 42.6 °F 30.22 in Calm     72% 0.00 in meteobridge W/m2
19:19 50.9 °F 42.6 °F 30.23 in Calm     73% 0.00 in meteobridge W/m2
19:24 50.5 °F 42.3 °F 30.22 in Calm     73% 0.00 in meteobridge W/m2
19:29 50.2 °F 42.3 °F 30.23 in Calm     74% 0.00 in meteobridge W/m2
19:34 49.8 °F 42.3 °F 30.22 in Calm     75% 0.00 in meteobridge W/m2
19:39 49.6 °F 42.1 °F 30.23 in Calm     75% 0.00 in meteobridge W/m2
19:44 49.3 °F 42.1 °F 30.22 in Calm     76% 0.00 in meteobridge W/m2
19:49 48.9 °F 42.1 °F 30.22 in Calm     77% 0.00 in meteobridge W/m2
19:54 48.6 °F 42.3 °F 30.22 in Calm     79% 0.00 in meteobridge W/m2
19:59 48.4 °F 41.9 °F 30.22 in Calm     78% 0.00 in meteobridge W/m2
20:04 48.0 °F 41.9 °F 30.22 in Calm     79% 0.00 in meteobridge W/m2
20:09 47.8 °F 41.7 °F 30.22 in Calm     79% 0.00 in meteobridge W/m2
20:14 47.8 °F 41.9 °F 30.22 in Calm     80% 0.00 in meteobridge W/m2
20:19 47.7 °F 41.7 °F 30.22 in Calm     80% 0.00 in meteobridge W/m2
20:24 47.5 °F 41.9 °F 30.22 in Calm     81% 0.00 in meteobridge W/m2
20:29 47.3 °F 41.7 °F 30.22 in Calm     81% 0.00 in meteobridge W/m2
20:34 47.3 °F 41.7 °F 30.22 in Calm     81% 0.00 in meteobridge W/m2
20:39 47.3 °F 42.4 °F 30.22 in Calm     83% 0.00 in meteobridge W/m2
20:44 47.3 °F 42.1 °F 30.21 in Calm     82% 0.00 in meteobridge W/m2
20:49 47.1 °F 41.9 °F 30.22 in Calm     82% 0.00 in meteobridge W/m2
20:54 47.1 °F 41.9 °F 30.21 in Calm     82% 0.00 in meteobridge W/m2
20:59 47.1 °F 42.3 °F 30.20 in Calm   1.0 mph 83% 0.00 in meteobridge W/m2
21:04 47.1 °F 42.3 °F 30.20 in Calm     83% 0.00 in meteobridge W/m2
21:09 47.3 °F 43.7 °F 30.20 in Calm     87% 0.00 in meteobridge W/m2
21:14 47.5 °F 42.6 °F 30.21 in Calm     83% 0.00 in meteobridge W/m2
21:19 47.7 °F 43.0 °F 30.20 in Calm   1.0 mph 84% 0.00 in meteobridge W/m2
21:24 47.7 °F 43.0 °F 30.19 in Calm     84% 0.00 in meteobridge W/m2
21:29 47.8 °F 43.2 °F 30.19 in Calm     84% 0.00 in meteobridge W/m2
21:34 47.8 °F 43.2 °F 30.19 in Calm     84% 0.00 in meteobridge W/m2
21:39 48.0 °F 43.2 °F 30.19 in Calm     83% 0.00 in meteobridge W/m2
21:44 48.6 °F 43.0 °F 30.18 in ESE 2.0 mph 2.0 mph 81% 0.00 in meteobridge W/m2
21:49 49.6 °F 44.1 °F 30.17 in ESE 2.0 mph 2.0 mph 81% 0.00 in meteobridge W/m2
21:54 50.2 °F 43.0 °F 30.19 in Calm     76% 0.00 in meteobridge W/m2
21:59 51.3 °F 43.5 °F 30.20 in Calm     75% 0.00 in meteobridge W/m2
22:04 51.6 °F 44.2 °F 30.20 in Calm     76% 0.00 in meteobridge W/m2
22:09 51.8 °F 44.8 °F 30.20 in Calm     77% 0.00 in meteobridge W/m2
22:14 51.8 °F 44.4 °F 30.21 in Calm     76% 0.00 in meteobridge W/m2
22:19 51.6 °F 44.6 °F 30.21 in Calm     77% 0.00 in meteobridge W/m2
22:24 51.6 °F 43.9 °F 30.21 in Calm     75% 0.00 in meteobridge W/m2
22:29 51.6 °F 43.9 °F 30.22 in Calm     75% 0.00 in meteobridge W/m2
22:34 51.4 °F 45.1 °F 30.22 in Calm     79% 0.00 in meteobridge W/m2
22:39 51.4 °F 44.4 °F 30.22 in Calm     77% 0.00 in meteobridge W/m2
22:44 51.4 °F 45.1 °F 30.22 in Calm     79% 0.00 in meteobridge W/m2
22:49 51.3 °F 44.6 °F 30.22 in Calm     78% 0.00 in meteobridge W/m2
22:54 51.1 °F 44.8 °F 30.22 in Calm     79% 0.00 in meteobridge W/m2
22:59 51.1 °F 43.7 °F 30.22 in Calm     76% 0.00 in meteobridge W/m2
23:04 51.1 °F 44.4 °F 30.23 in Calm     78% 0.00 in meteobridge W/m2
23:09 50.9 °F 45.3 °F 30.22 in Calm     81% 0.00 in meteobridge W/m2
23:14 50.7 °F 44.8 °F 30.22 in Calm     80% 0.00 in meteobridge W/m2
23:19 50.5 °F 44.2 °F 30.22 in Calm     79% 0.00 in meteobridge W/m2
23:24 50.5 °F 44.2 °F 30.21 in Calm     79% 0.00 in meteobridge W/m2
23:29 50.4 °F 44.4 °F 30.21 in Calm     80% 0.00 in meteobridge W/m2
23:34 50.4 °F 43.7 °F 30.21 in Calm     78% 0.00 in meteobridge W/m2
23:39 50.4 °F 44.1 °F 30.21 in Calm     79% 0.00 in meteobridge W/m2
23:44 50.5 °F 45.0 °F 30.20 in Calm     81% 0.00 in meteobridge W/m2
23:49 50.4 °F 44.4 °F 30.20 in Calm     80% 0.00 in meteobridge W/m2
23:54 50.4 °F 44.4 °F 30.20 in Calm     80% 0.00 in meteobridge W/m2
23:59 50.4 °F 44.8 °F 30.20 in Calm     81% 0.00 in meteobridge W/m2
EllijayWeather
Compliments of Weather Underground - 2.5 mb